Time;durP1;ratioP1;P1;durP2;ratioP2;P2;SDS_P1;SDS_P2;PMS_P1;PMS_P2;Temp;Humidity;BMP_temperature;BMP_pressure;BME280_temperature;BME280_humidity;BME280_pressure;Samples;Min_cycle;Max_cycle;Signal;HPM_P1;HPM_P2
2022/07/11 00:01:41;;;;;;;1.38;1.27;;;;;;;14.23;57.40;101375.31;5093288;28;20034;-26
2022/07/11 00:04:07;;;;;;;1.10;0.88;;;;;;;14.21;57.55;101379.75;5107073;28;20020;-26
2022/07/11 00:06:32;;;;;;;0.88;0.88;;;;;;;14.17;57.87;101375.41;5109247;28;20035;-26
2022/07/11 00:08:57;;;;;;;1.70;1.17;;;;;;;14.14;57.85;101380.72;5109344;28;20023;-26
2022/07/11 00:11:22;;;;;;;1.55;1.08;;;;;;;14.13;57.72;101378.13;5100179;28;20026;-26
2022/07/11 00:13:48;;;;;;;1.30;0.85;;;;;;;14.10;58.42;101374.59;5090718;28;20126;-25
2022/07/11 00:16:13;;;;;;;1.58;1.40;;;;;;;14.04;57.73;101377.31;5089388;28;20030;-25
2022/07/11 00:18:39;;;;;;;1.02;0.90;;;;;;;14.05;57.92;101379.09;5100447;27;20039;-26
2022/07/11 00:21:05;;;;;;;1.33;1.02;;;;;;;14.02;57.96;101383.53;5120769;27;20394;-26
2022/07/11 00:23:30;;;;;;;0.80;0.80;;;;;;;13.97;58.34;101380.94;5118690;27;20051;-25
2022/07/11 00:25:56;;;;;;;1.70;1.08;;;;;;;13.97;58.15;101378.28;5091965;28;20023;-26
2022/07/11 00:28:21;;;;;;;0.80;0.80;;;;;;;13.93;58.25;101377.47;5088792;28;20034;-25
2022/07/11 00:30:47;;;;;;;0.88;0.88;;;;;;;13.91;58.49;101373.09;5110120;28;20019;-24
2022/07/11 00:33:12;;;;;;;2.45;1.25;;;;;;;13.92;58.15;101375.72;5108826;28;20026;-26
2022/07/11 00:35:37;;;;;;;1.67;1.33;;;;;;;13.84;58.26;101366.97;5113277;27;20478;-26
2022/07/11 00:38:03;;;;;;;2.47;1.00;;;;;;;13.77;58.49;101382.06;5126326;27;20032;-26
2022/07/11 00:40:28;;;;;;;0.90;0.90;;;;;;;13.78;58.53;101377.66;5112167;28;20054;-25
2022/07/11 00:42:54;;;;;;;2.28;1.40;;;;;;;13.77;58.55;101378.56;5111625;28;20289;-26
2022/07/11 00:45:19;;;;;;;1.60;1.23;;;;;;;13.75;59.03;101382.97;5112179;28;20069;-26
2022/07/11 00:47:44;;;;;;;1.45;0.93;;;;;;;13.71;58.50;101383.00;5091246;28;20019;-26
2022/07/11 00:50:10;;;;;;;0.80;0.80;;;;;;;13.69;58.21;101379.50;5100099;28;20027;-26
2022/07/11 00:52:37;;;;;;;1.45;0.95;;;;;;;13.65;58.17;101377.78;5119381;28;20031;-25
2022/07/11 00:55:05;;;;;;;0.90;0.90;;;;;;;13.63;58.03;101381.34;5082994;28;20422;-26
2022/07/11 00:57:31;;;;;;;2.00;1.30;;;;;;;13.58;58.53;101384.03;5095861;28;20032;-26
2022/07/11 00:59:56;;;;;;;1.35;1.25;;;;;;;13.51;58.22;101377.03;5109633;28;20102;-26
2022/07/11 01:02:21;;;;;;;1.10;1.00;;;;;;;13.49;58.44;101381.47;5094201;28;20118;-26
2022/07/11 01:04:47;;;;;;;1.05;1.00;;;;;;;13.43;58.22;101383.25;5076047;28;20085;-25
2022/07/11 01:07:13;;;;;;;1.20;1.00;;;;;;;13.41;58.12;101376.22;5090806;28;20032;-25
2022/07/11 01:09:39;;;;;;;1.23;1.13;;;;;;;13.36;58.25;101376.25;5103316;28;20028;-25
2022/07/11 01:12:05;;;;;;;0.82;0.82;;;;;;;13.32;58.45;101377.19;5091064;28;20039;-25
2022/07/11 01:14:31;;;;;;;1.98;1.20;;;;;;;13.31;58.20;101372.78;5102878;28;20027;-26
2022/07/11 01:16:56;;;;;;;2.25;1.10;;;;;;;13.27;58.40;101379.00;5105118;28;20020;-25
2022/07/11 01:19:22;;;;;;;1.40;0.90;;;;;;;13.15;58.38;101372.94;5092256;28;20024;-25
2022/07/11 01:21:52;;;;;;;1.20;1.10;;;;;;;13.17;58.38;101375.56;5100768;28;20020;-26
2022/07/11 01:24:17;;;;;;;1.10;0.93;;;;;;;13.12;58.45;101372.94;5103917;28;20080;-24
2022/07/11 01:26:44;;;;;;;1.10;1.10;;;;;;;13.08;58.42;101371.22;5106589;28;20031;-26
2022/07/11 01:29:11;;;;;;;1.10;1.00;;;;;;;13.00;58.49;101365.97;5096598;28;20478;-26
2022/07/11 01:31:43;;;;;;;1.88;0.98;;;;;;;12.98;58.49;101362.47;5114092;28;20043;-26
2022/07/11 01:34:09;;;;;;;0.90;0.90;;;;;;;12.95;58.67;101366.00;5115436;27;20559;-25
2022/07/11 01:36:35;;;;;;;3.08;1.10;;;;;;;12.92;58.64;101366.06;5107124;28;20066;-26
2022/07/11 01:39:00;;;;;;;1.50;1.00;;;;;;;12.90;58.50;101351.94;5081095;28;20028;-25
2022/07/11 01:41:26;;;;;;;1.10;1.00;;;;;;;12.92;58.96;101358.09;5100427;28;20020;-25
2022/07/11 01:43:52;;;;;;;1.30;1.10;;;;;;;12.89;59.01;101360.78;5120066;27;20242;-25
2022/07/11 01:46:19;;;;;;;1.55;1.00;;;;;;;12.86;58.85;101350.19;5125655;27;20028;-25
2022/07/11 01:48:44;;;;;;;1.45;0.98;;;;;;;12.83;59.18;101367.00;5092535;28;20027;-25
2022/07/11 01:51:09;;;;;;;1.80;1.48;;;;;;;12.82;58.93;101349.38;5120060;28;20394;-25
2022/07/11 01:53:35;;;;;;;1.23;1.05;;;;;;;12.79;59.10;101352.03;5117268;28;20107;-26
2022/07/11 01:56:00;;;;;;;1.92;1.30;;;;;;;12.75;59.34;101344.13;5093849;28;20440;-23
2022/07/11 01:58:26;;;;;;;1.17;1.05;;;;;;;12.73;58.98;101343.25;5104391;27;20015;-23
2022/07/11 02:00:51;;;;;;;1.23;0.88;;;;;;;12.69;59.31;101353.88;5101874;28;20059;-24
2022/07/11 02:03:16;;;;;;;1.08;1.02;;;;;;;12.67;59.42;101354.78;5097536;27;20032;-23
2022/07/11 02:05:42;;;;;;;1.30;1.20;;;;;;;12.63;59.50;101343.31;5103408;28;20031;-23
2022/07/11 02:08:14;;;;;;;1.42;1.00;;;;;;;12.64;59.38;101346.84;5106248;28;20399;-24
2022/07/11 02:10:44;;;;;;;0.95;0.95;;;;;;;12.61;59.53;101352.16;5110895;28;20039;-24
2022/07/11 02:13:12;;;;;;;1.40;1.10;;;;;;;12.56;59.47;101353.06;5108029;28;20114;-24
2022/07/11 02:15:38;;;;;;;1.63;1.00;;;;;;;12.53;59.41;101355.72;5111381;28;20027;-23
2022/07/11 02:18:03;;;;;;;1.20;1.10;;;;;;;12.49;59.34;101351.34;5104334;28;20027;-23
2022/07/11 02:20:29;;;;;;;2.00;1.02;;;;;;;12.48;59.83;101352.25;5109070;28;20030;-26
2022/07/11 02:22:56;;;;;;;1.23;1.13;;;;;;;12.49;59.84;101356.63;5091638;28;20027;-24
2022/07/11 02:25:22;;;;;;;1.85;1.10;;;;;;;12.48;59.82;101354.88;5111432;28;20023;-23
2022/07/11 02:27:47;;;;;;;1.45;1.13;;;;;;;12.47;59.87;101357.53;5082334;28;20399;-23
2022/07/11 02:30:13;;;;;;;1.30;1.20;;;;;;;12.45;59.97;101347.81;5106309;28;20562;-25
2022/07/11 02:32:39;;;;;;;1.33;1.05;;;;;;;12.41;59.73;101350.53;5111246;28;20083;-23
2022/07/11 02:35:05;;;;;;;0.90;0.90;;;;;;;12.37;59.82;101362.00;5077951;28;20092;-25
2022/07/11 02:37:32;;;;;;;1.45;1.08;;;;;;;12.34;59.51;101357.59;5114290;28;20054;-23
2022/07/11 02:39:57;;;;;;;1.10;1.00;;;;;;;12.33;59.68;101361.13;5104457;28;20031;-27
2022/07/11 02:42:23;;;;;;;1.67;1.23;;;;;;;12.28;60.02;101363.78;5123428;27;20079;-23
2022/07/11 02:44:48;;;;;;;0.77;0.70;;;;;;;12.26;59.93;101365.56;5121078;27;20498;-24
2022/07/11 02:47:14;;;;;;;1.33;0.93;;;;;;;12.24;59.72;101375.28;5078249;28;20027;-23
2022/07/11 02:49:39;;;;;;;1.17;1.08;;;;;;;12.25;59.69;101384.09;5112635;28;20040;-24
2022/07/11 02:52:05;;;;;;;1.15;1.15;;;;;;;12.25;59.87;101386.75;5109164;28;20467;-25
2022/07/11 02:54:31;;;;;;;1.30;1.10;;;;;;;12.21;59.69;101385.00;5103493;28;20019;-23
2022/07/11 02:56:56;;;;;;;3.22;1.10;;;;;;;12.16;59.89;101385.00;5110707;28;20031;-25
2022/07/11 02:59:22;;;;;;;1.40;1.20;;;;;;;12.14;59.95;101382.38;5105506;28;20032;-23
2022/07/11 03:01:48;;;;;;;2.75;1.30;;;;;;;12.12;59.86;101389.44;5070916;28;20020;-23
2022/07/11 03:04:13;;;;;;;1.33;1.05;;;;;;;12.10;60.17;101379.78;5106261;28;20028;-23
2022/07/11 03:06:39;;;;;;;1.35;0.98;;;;;;;12.06;60.02;101384.16;5083550;28;20027;-24
2022/07/11 03:09:06;;;;;;;1.95;1.25;;;;;;;12.04;60.17;101386.78;5110068;28;20031;-23
2022/07/11 03:11:32;;;;;;;1.48;1.38;;;;;;;12.02;60.25;101391.22;5072432;28;20527;-23
2022/07/11 03:13:58;;;;;;;1.38;1.17;;;;;;;11.99;60.06;101377.13;5092430;28;20035;-24
2022/07/11 03:16:23;;;;;;;2.13;1.50;;;;;;;11.99;60.06;101385.03;5097016;28;20035;-23
2022/07/11 03:18:49;;;;;;;1.55;1.20;;;;;;;11.94;59.93;101385.94;5106549;28;20032;-24
2022/07/11 03:21:15;;;;;;;2.45;1.50;;;;;;;11.91;60.05;101393.88;5099206;28;20038;-24
2022/07/11 03:23:40;;;;;;;2.08;1.23;;;;;;;11.92;60.38;101397.41;5113291;28;20032;-24
2022/07/11 03:26:05;;;;;;;2.67;1.42;;;;;;;11.90;60.41;101389.47;5091334;28;20024;-24
2022/07/11 03:28:31;;;;;;;2.42;1.23;;;;;;;11.91;60.22;101400.94;5094360;28;20028;-23
2022/07/11 03:30:56;;;;;;;1.55;1.23;;;;;;;11.87;60.69;101388.63;5093938;28;20059;-24
2022/07/11 03:33:21;;;;;;;2.05;1.85;;;;;;;11.84;60.42;101394.78;5094418;28;20503;-24
2022/07/11 03:35:47;;;;;;;2.63;1.63;;;;;;;11.85;60.38;101390.38;5106552;28;20372;-23
2022/07/11 03:38:15;;;;;;;1.60;1.48;;;;;;;11.79;60.24;101399.22;5114158;27;20386;-23
2022/07/11 03:40:41;;;;;;;4.63;2.00;;;;;;;11.78;60.46;101394.81;5091894;28;20024;-24
2022/07/11 03:43:06;;;;;;;2.45;1.77;;;;;;;11.75;60.37;101389.53;5074447;28;20038;-24
2022/07/11 03:45:31;;;;;;;4.38;1.60;;;;;;;11.73;60.49;101388.63;5084984;28;20032;-24
2022/07/11 03:47:56;;;;;;;3.15;1.33;;;;;;;11.73;60.74;101383.34;5104537;28;20051;-24
2022/07/11 03:50:22;;;;;;;2.10;1.70;;;;;;;11.66;60.85;101386.03;5106832;28;20120;-23
2022/07/11 03:52:47;;;;;;;2.92;1.55;;;;;;;11.64;60.81;101382.50;5113755;27;20072;-24
2022/07/11 03:55:13;;;;;;;3.08;1.35;;;;;;;11.66;60.67;101391.31;5109758;27;20069;-23
2022/07/11 03:57:38;;;;;;;2.55;1.52;;;;;;;11.65;60.52;101386.91;5120934;27;20022;-24
2022/07/11 04:00:06;;;;;;;2.20;1.77;;;;;;;11.64;60.85;101386.91;5072298;28;20116;-23
2022/07/11 04:02:32;;;;;;;1.55;1.30;;;;;;;11.65;61.30;101391.31;5114169;27;20118;-25
2022/07/11 04:04:57;;;;;;;2.05;1.42;;;;;;;11.63;60.76;101388.69;5091809;28;20062;-24
2022/07/11 04:07:23;;;;;;;1.20;1.10;;;;;;;11.61;60.85;101394.84;5105276;27;20153;-23
2022/07/11 04:09:48;;;;;;;1.30;1.17;;;;;;;11.66;61.14;101383.38;5122246;27;20107;-24
2022/07/11 04:12:13;;;;;;;1.58;1.48;;;;;;;11.63;60.43;101386.03;5102500;27;20026;-23
2022/07/11 04:14:39;;;;;;;1.30;1.20;;;;;;;11.64;60.81;101390.44;5107463;27;20033;-23
2022/07/11 04:17:04;;;;;;;2.08;1.20;;;;;;;11.65;61.34;101386.91;5097866;27;20042;-24
2022/07/11 04:19:29;;;;;;;0.90;0.90;;;;;;;11.64;61.20;101397.50;5113706;27;20068;-23
2022/07/11 04:21:55;;;;;;;2.33;1.27;;;;;;;11.72;61.40;101390.41;5098818;28;20050;-23
2022/07/11 04:24:21;;;;;;;1.38;1.20;;;;;;;11.72;61.70;101394.81;5108247;27;20054;-23
2022/07/11 04:26:46;;;;;;;1.30;1.20;;;;;;;11.71;61.69;101388.66;5114457;27;20031;-24
2022/07/11 04:29:12;;;;;;;1.83;1.20;;;;;;;11.76;61.19;101391.28;5108111;28;20382;-23
2022/07/11 04:31:38;;;;;;;1.58;1.35;;;;;;;11.80;61.00;101393.03;5087495;28;20031;-24
2022/07/11 04:34:04;;;;;;;1.80;1.10;;;;;;;11.87;61.30;101394.78;5077674;28;20041;-25
2022/07/11 04:36:30;;;;;;;1.60;1.10;;;;;;;11.90;61.07;101383.31;5073510;27;20053;-23
2022/07/11 04:38:56;;;;;;;1.85;0.93;;;;;;;11.95;60.92;101392.13;5108071;28;20027;-25
2022/07/11 04:41:21;;;;;;;1.38;1.00;;;;;;;11.98;61.01;101392.13;5102618;27;20110;-24
2022/07/11 04:43:46;;;;;;;2.08;1.15;;;;;;;12.03;60.98;101389.44;5113145;27;20113;-23
2022/07/11 04:46:12;;;;;;;1.23;1.00;;;;;;;12.08;60.87;101387.69;5122710;27;20027;-24
2022/07/11 04:48:38;;;;;;;1.20;0.90;;;;;;;12.11;60.56;101382.41;5083142;28;20055;-23
2022/07/11 04:51:07;;;;;;;2.42;1.10;;;;;;;12.16;60.67;101385.00;5114389;28;20115;-23
2022/07/11 04:53:33;;;;;;;1.17;1.08;;;;;;;12.19;61.09;101385.91;5109055;28;20028;-23
2022/07/11 04:55:58;;;;;;;1.50;1.20;;;;;;;12.25;60.45;101384.09;5109525;28;20479;-23
2022/07/11 04:58:24;;;;;;;1.30;1.17;;;;;;;12.26;60.43;101388.50;5112616;28;20020;-23
2022/07/11 05:00:49;;;;;;;1.67;1.05;;;;;;;12.28;60.65;101390.25;5117803;28;20028;-23
2022/07/11 05:03:14;;;;;;;1.00;1.00;;;;;;;12.32;60.91;101392.00;5110138;27;20039;-25
2022/07/11 05:05:40;;;;;;;2.15;1.13;;;;;;;12.35;60.75;101385.81;5094451;27;20111;-24
2022/07/11 05:08:05;;;;;;;2.05;1.20;;;;;;;12.39;60.36;101389.31;5126332;27;20020;-23
2022/07/11 05:10:33;;;;;;;1.30;1.08;;;;;;;12.42;60.48;101398.13;5089945;27;20032;-23
2022/07/11 05:12:58;;;;;;;2.05;1.38;;;;;;;12.45;60.84;101398.09;5123774;27;20476;-25
2022/07/11 05:15:24;;;;;;;1.55;1.10;;;;;;;12.52;62.38;101413.94;5105071;28;20321;-23
2022/07/11 05:17:49;;;;;;;1.27;1.10;;;;;;;12.54;61.14;101406.88;5116897;27;20031;-23
2022/07/11 05:20:15;;;;;;;1.38;1.20;;;;;;;12.63;61.07;101412.13;5122059;27;20399;-24
2022/07/11 05:22:40;;;;;;;1.10;1.00;;;;;;;12.72;61.08;101412.94;5104219;27;20030;-23
2022/07/11 05:25:06;;;;;;;1.20;1.02;;;;;;;12.79;61.34;101410.25;5123107;27;20037;-24
2022/07/11 05:27:32;;;;;;;1.73;1.20;;;;;;;12.88;61.41;101411.97;5092785;28;20475;-23
2022/07/11 05:29:57;;;;;;;1.52;1.42;;;;;;;12.98;61.76;101411.91;5097620;28;20023;-24
2022/07/11 05:32:22;;;;;;;3.30;1.00;;;;;;;13.07;61.87;101409.16;5116115;28;20027;-23
2022/07/11 05:34:48;;;;;;;1.20;1.10;;;;;;;13.16;62.38;101418.81;5116630;28;20467;-24
2022/07/11 05:37:13;;;;;;;1.73;1.55;;;;;;;13.23;62.19;101417.88;5115128;28;20024;-24
2022/07/11 05:39:38;;;;;;;1.40;1.00;;;;;;;13.32;62.78;101411.63;5110748;28;20023;-23
2022/07/11 05:42:04;;;;;;;1.17;1.10;;;;;;;13.38;63.87;101416.88;5116661;28;20416;-24
2022/07/11 05:44:29;;;;;;;1.08;1.08;;;;;;;13.46;63.33;101420.34;5115731;28;20098;-24
2022/07/11 05:46:59;;;;;;;2.38;1.25;;;;;;;13.56;63.42;101422.91;5116626;28;20472;-24
2022/07/11 05:49:25;;;;;;;1.55;1.10;;;;;;;13.68;64.55;101424.59;5098028;28;20024;-24
2022/07/11 05:51:50;;;;;;;1.63;1.17;;;;;;;13.77;64.45;101424.47;5098740;28;20054;-23
2022/07/11 05:54:17;;;;;;;1.90;1.17;;;;;;;13.88;64.62;101426.13;5113392;28;20023;-24
2022/07/11 05:56:43;;;;;;;1.23;1.13;;;;;;;13.96;64.13;101430.47;5098798;28;20088;-24
2022/07/11 05:59:09;;;;;;;1.67;1.08;;;;;;;14.04;64.89;101429.50;5116563;28;20526;-23
2022/07/11 06:01:36;;;;;;;1.60;1.20;;;;;;;14.12;64.19;101427.63;5099263;28;20104;-23
2022/07/11 06:04:02;;;;;;;1.30;1.20;;;;;;;14.18;63.43;101429.34;5113070;28;20031;-23
2022/07/11 06:06:29;;;;;;;2.13;1.25;;;;;;;14.24;63.58;101430.13;5115205;28;20023;-24
2022/07/11 06:08:54;;;;;;;1.65;1.20;;;;;;;14.31;63.76;101425.63;5116951;28;20133;-23
2022/07/11 06:11:20;;;;;;;1.33;1.23;;;;;;;14.39;63.55;101427.31;5099734;28;20489;-24
2022/07/11 06:13:45;;;;;;;1.08;1.00;;;;;;;14.48;63.43;101427.19;5079389;28;20115;-23
2022/07/11 06:16:12;;;;;;;2.15;1.15;;;;;;;14.57;63.13;101431.50;5082011;28;20088;-24
2022/07/11 06:18:39;;;;;;;1.52;1.08;;;;;;;14.64;62.70;101425.19;5117133;28;20483;-23
2022/07/11 06:21:05;;;;;;;1.60;1.08;;;;;;;14.73;63.04;101427.72;5111405;28;20020;-24
2022/07/11 06:23:32;;;;;;;1.98;1.10;;;;;;;14.83;63.75;101420.53;5116911;28;20134;-24
2022/07/11 06:25:57;;;;;;;0.88;0.88;;;;;;;14.96;62.93;101423.00;5080069;28;20027;-24
2022/07/11 06:28:23;;;;;;;1.60;1.08;;;;;;;15.08;62.99;101416.63;5095460;28;20541;-25
2022/07/11 06:30:49;;;;;;;0.85;0.85;;;;;;;15.19;62.97;101422.63;5088749;28;20243;-25
2022/07/11 06:33:18;;;;;;;1.15;1.08;;;;;;;15.30;63.00;101414.47;5114363;28;20401;-25
2022/07/11 06:35:44;;;;;;;1.20;1.00;;;;;;;15.42;63.18;101421.38;5096383;28;20023;-26
2022/07/11 06:38:10;;;;;;;1.65;1.30;;;;;;;15.53;63.22;101421.19;5093087;28;20019;-25
2022/07/11 06:40:36;;;;;;;2.55;1.27;;;;;;;15.74;63.59;101422.56;5099129;28;20035;-25
2022/07/11 06:43:01;;;;;;;1.25;1.15;;;;;;;15.88;62.43;101426.75;5113652;28;20028;-26
2022/07/11 06:45:26;;;;;;;1.80;1.33;;;;;;;15.99;62.73;101423.91;5111051;28;20028;-26
2022/07/11 06:47:52;;;;;;;1.23;1.13;;;;;;;16.14;61.62;101420.94;5113515;27;20031;-25
2022/07/11 06:50:18;;;;;;;1.30;0.95;;;;;;;16.19;62.06;101418.19;5114083;28;20471;-26
2022/07/11 06:52:45;;;;;;;1.17;1.08;;;;;;;16.28;61.84;101417.13;5113802;27;20249;-26
2022/07/11 06:55:11;;;;;;;1.13;1.02;;;;;;;16.39;61.74;101424.88;5106986;28;20035;-25
2022/07/11 06:57:36;;;;;;;0.93;0.93;;;;;;;16.50;61.25;101428.16;5097176;28;20020;-25
2022/07/11 07:00:03;;;;;;;1.45;0.90;;;;;;;16.62;61.24;101427.03;5109657;28;20038;-25
2022/07/11 07:02:30;;;;;;;1.20;1.20;;;;;;;16.71;60.58;101425.97;5113544;28;20083;-26
2022/07/11 07:04:57;;;;;;;1.10;1.10;;;;;;;16.81;60.98;101423.94;5110714;28;20375;-25
2022/07/11 07:07:22;;;;;;;1.88;1.10;;;;;;;16.87;61.41;101428.25;5097774;28;20055;-25
2022/07/11 07:09:48;;;;;;;0.93;0.93;;;;;;;16.88;60.45;101422.00;5114814;28;20459;-25
2022/07/11 07:12:13;;;;;;;1.05;1.02;;;;;;;16.99;60.51;101422.63;5114993;28;20034;-25
2022/07/11 07:14:38;;;;;;;1.20;1.10;;;;;;;17.11;59.96;101416.13;5114057;28;20433;-25
2022/07/11 07:17:05;;;;;;;1.88;0.90;;;;;;;17.17;60.06;101418.66;5097039;28;20073;-26
2022/07/11 07:19:30;;;;;;;1.08;0.98;;;;;;;17.28;59.62;101415.72;5114792;28;20149;-25
2022/07/11 07:21:56;;;;;;;1.38;1.00;;;;;;;17.41;59.87;101410.94;5105465;28;20065;-25
2022/07/11 07:24:21;;;;;;;0.80;0.80;;;;;;;17.54;59.43;101421.31;5115380;28;20047;-24
2022/07/11 07:26:47;;;;;;;1.60;0.98;;;;;;;17.62;59.15;101419.31;5104866;28;20454;-25
2022/07/11 07:29:12;;;;;;;2.47;1.25;;;;;;;17.68;58.96;101428.94;5083978;28;20027;-25
2022/07/11 07:31:37;;;;;;;1.65;1.15;;;;;;;17.78;58.82;101424.22;5110564;28;20031;-25
2022/07/11 07:34:03;;;;;;;3.45;1.05;;;;;;;17.86;58.53;101426.66;5080019;28;20023;-25
2022/07/11 07:36:28;;;;;;;1.85;1.45;;;;;;;17.93;58.45;101433.59;5114430;28;20433;-25
2022/07/11 07:38:53;;;;;;;1.08;0.90;;;;;;;18.00;57.99;101419.16;5114684;28;20429;-25
2022/07/11 07:41:20;;;;;;;3.65;0.90;;;;;;;18.08;58.16;101422.47;5113607;28;20027;-25
2022/07/11 07:43:48;;;;;;;0.88;0.80;;;;;;;18.21;57.77;101414.16;5113546;28;20102;-25
2022/07/11 07:46:14;;;;;;;1.90;1.17;;;;;;;18.39;58.00;101418.06;5113275;28;20030;-26
2022/07/11 07:48:40;;;;;;;2.15;1.02;;;;;;;18.50;57.98;101428.41;5094865;28;20019;-25
2022/07/11 07:51:05;;;;;;;1.52;0.90;;;;;;;18.57;57.60;101415.75;5078102;28;20046;-25
2022/07/11 07:53:31;;;;;;;1.15;0.90;;;;;;;18.70;57.15;101416.22;5111016;28;20033;-25
2022/07/11 07:55:56;;;;;;;3.72;0.95;;;;;;;18.76;57.04;101428.53;5093793;28;20039;-25
2022/07/11 07:58:21;;;;;;;1.42;1.33;;;;;;;18.88;57.00;101427.28;5113134;28;20019;-26
2022/07/11 08:03:31;;;;;;;1.20;0.90;;;;;;;19.06;56.52;101429.38;5108081;28;20078;-25
2022/07/11 08:05:56;;;;;;;0.82;0.82;;;;;;;19.16;56.38;101431.75;5077050;28;20055;-25
2022/07/11 08:08:22;;;;;;;1.20;1.10;;;;;;;19.28;55.96;101423.31;5074038;28;20052;-25
2022/07/11 08:10:47;;;;;;;1.75;1.10;;;;;;;19.33;55.86;101418.69;5091794;28;20434;-25
2022/07/11 08:13:12;;;;;;;1.85;0.88;;;;;;;19.45;55.86;101416.50;5103903;28;20028;-25
2022/07/11 08:15:38;;;;;;;1.00;0.90;;;;;;;19.55;55.77;101419.75;5077360;28;20399;-25
2022/07/11 08:18:03;;;;;;;1.23;0.80;;;;;;;19.68;56.06;101412.16;5111953;28;20019;-25
2022/07/11 08:20:28;;;;;;;1.35;1.10;;;;;;;19.77;55.29;101417.16;5112394;28;20030;-25
2022/07/11 08:22:59;;;;;;;1.25;0.95;;;;;;;19.89;55.31;101415.84;5111366;28;20032;-24
2022/07/11 08:25:24;;;;;;;;;;;;;;;19.96;55.19;101412.03;5112771;28;20031;-25
2022/07/11 08:27:50;;;;;;;1.57;0.77;;;;;;;20.06;54.77;101407.22;5112154;28;19915;-26
2022/07/11 08:30:15;;;;;;;1.00;0.80;;;;;;;20.13;54.56;101408.75;5111725;28;20019;-25
2022/07/11 08:32:40;;;;;;;0.90;0.90;;;;;;;20.24;54.40;101408.31;5097250;28;20023;-25
2022/07/11 08:35:06;;;;;;;0.88;0.88;;;;;;;20.35;54.24;101415.97;5110689;28;20024;-25
2022/07/11 08:37:32;;;;;;;2.17;1.08;;;;;;;20.42;54.17;101407.69;5111653;28;20030;-25
2022/07/11 08:39:57;;;;;;;0.95;0.88;;;;;;;20.51;53.68;101416.22;5111805;28;20023;-25
2022/07/11 08:42:23;;;;;;;0.82;0.82;;;;;;;20.61;53.83;101414.06;5107194;28;20523;-25
2022/07/11 08:44:48;;;;;;;0.95;0.95;;;;;;;20.70;53.17;101422.66;5092128;28;20501;-25
2022/07/11 08:47:14;;;;;;;0.98;0.95;;;;;;;20.76;53.54;101417.06;5076685;28;20479;-26
2022/07/11 08:49:40;;;;;;;2.08;0.98;;;;;;;20.84;54.48;101409.56;5096235;28;20027;-25
2022/07/11 08:52:07;;;;;;;1.63;1.08;;;;;;;20.86;52.56;101410.41;5110798;28;20031;-25
2022/07/11 08:54:32;;;;;;;0.63;0.63;;;;;;;20.93;52.80;101402.13;5107451;28;20475;-25
2022/07/11 08:56:58;;;;;;;0.88;0.85;;;;;;;21.09;53.07;101403.25;5091568;28;20066;-25
2022/07/11 08:59:25;;;;;;;0.82;0.82;;;;;;;21.18;52.22;101395.75;5068935;28;20048;-25
2022/07/11 09:01:54;;;;;;;1.00;1.00;;;;;;;21.33;52.38;101392.41;5073537;28;20078;-25
2022/07/11 09:04:23;;;;;;;0.90;0.90;;;;;;;21.38;51.78;101397.56;5083760;28;20031;-25
2022/07/11 09:06:48;;;;;;;0.57;0.57;;;;;;;21.47;51.70;101401.66;5091320;28;20028;-25
2022/07/11 09:09:13;;;;;;;1.33;1.25;;;;;;;21.60;52.11;101397.50;5104843;28;20493;-26
2022/07/11 09:11:50;;;;;;;2.38;1.00;;;;;;;21.68;51.32;101397.16;5111326;28;20042;-25
2022/07/11 09:14:23;;;;;;;0.90;0.90;;;;;;;21.80;51.27;101401.13;5111656;28;20023;-25
2022/07/11 09:16:54;;;;;;;1.10;1.10;;;;;;;21.91;50.92;101396.13;5089491;28;20024;-25
2022/07/11 09:19:28;;;;;;;1.00;0.90;;;;;;;22.00;50.74;101400.22;5094791;28;20023;-24
2022/07/11 09:27:41;;;;;;;0.85;0.85;;;;;;;22.32;50.19;101385.34;5078296;28;20040;-25
2022/07/11 09:30:35;;;;;;;1.27;1.10;;;;;;;22.36;49.60;101395.88;5093468;28;20028;-25
2022/07/11 09:33:03;;;;;;;1.42;1.10;;;;;;;22.47;50.08;101391.81;5103861;28;20058;-25
2022/07/11 09:35:32;;;;;;;1.23;1.13;;;;;;;22.55;49.89;101403.06;5111019;28;20042;-26
2022/07/11 09:37:58;;;;;;;1.23;0.80;;;;;;;22.62;49.88;101399.19;5111189;28;20048;-24
2022/07/11 09:40:25;;;;;;;0.90;0.90;;;;;;;22.65;49.29;101400.84;5093252;28;20024;-24
2022/07/11 09:42:55;;;;;;;0.95;0.95;;;;;;;22.67;48.98;101388.16;5111450;28;20039;-25
2022/07/11 09:45:24;;;;;;;1.50;0.90;;;;;;;22.70;48.68;101403.31;5111208;28;20034;-26
2022/07/11 09:47:51;;;;;;;0.90;0.90;;;;;;;22.76;48.45;101392.22;5111372;28;20027;-24
2022/07/11 09:50:19;;;;;;;2.20;0.70;;;;;;;22.86;48.42;101396.22;5108238;28;20016;-23
2022/07/11 09:52:58;;;;;;;0.60;0.60;;;;;;;22.96;48.17;101398.44;5075977;28;20031;-23
2022/07/11 09:55:25;;;;;;;0.73;0.70;;;;;;;23.04;48.18;101390.88;5097501;28;20032;-24
2022/07/11 09:57:50;;;;;;;1.05;0.95;;;;;;;23.12;47.85;101372.50;5085582;28;20114;-23
2022/07/11 10:00:16;;;;;;;0.70;0.70;;;;;;;23.18;47.62;101377.56;5096892;28;20157;-23
2022/07/11 10:02:41;;;;;;;0.75;0.75;;;;;;;23.27;46.81;101375.38;5114774;28;20031;-23
2022/07/11 10:05:07;;;;;;;0.70;0.70;;;;;;;23.27;46.30;101381.59;5113579;28;20023;-24
2022/07/11 10:07:33;;;;;;;1.33;0.68;;;;;;;23.38;46.93;101377.53;5114781;28;20110;-24
2022/07/11 10:09:59;;;;;;;1.25;0.70;;;;;;;23.50;46.85;101381.41;5114974;28;20027;-23
2022/07/11 10:12:26;;;;;;;1.48;1.00;;;;;;;23.64;47.73;101380.66;5103693;28;20076;-24
2022/07/11 10:14:52;;;;;;;0.63;0.63;;;;;;;23.68;46.76;101385.78;5094194;28;20262;-23
2022/07/11 10:17:44;;;;;;;1.05;0.82;;;;;;;23.69;45.94;101387.53;5076291;28;20532;-23
2022/07/11 10:20:17;;;;;;;0.80;0.80;;;;;;;23.76;45.81;101379.13;5091685;28;20439;-23
2022/07/11 10:22:50;;;;;;;1.45;0.90;;;;;;;23.80;45.90;101378.88;5113784;28;20044;-23
2022/07/11 10:25:41;;;;;;;2.78;0.95;;;;;;;23.89;46.05;101376.63;5101033;28;20024;-23
2022/07/11 10:28:30;;;;;;;0.93;0.88;;;;;;;23.96;45.78;101362.75;5079378;28;20027;-23
2022/07/11 10:30:59;;;;;;;1.05;0.68;;;;;;;24.04;45.37;101364.16;5113961;28;20039;-23
2022/07/11 10:33:24;;;;;;;1.15;0.70;;;;;;;24.09;45.13;101367.47;5114446;28;20449;-23
2022/07/11 10:35:51;;;;;;;1.08;0.82;;;;;;;24.14;44.36;101381.56;5114322;28;20555;-23
2022/07/11 10:38:17;;;;;;;0.60;0.60;;;;;;;24.20;44.54;101372.28;5095990;28;20425;-24
2022/07/11 10:40:51;;;;;;;1.92;0.60;;;;;;;24.31;45.05;101377.06;5069791;28;20046;-23
2022/07/11 10:43:38;;;;;;;2.08;0.70;;;;;;;24.36;44.91;101383.06;5093631;28;20353;-23
2022/07/11 10:46:06;;;;;;;1.15;0.70;;;;;;;24.40;44.01;101386.44;5105025;28;20391;-23
2022/07/11 10:48:35;;;;;;;1.42;0.90;;;;;;;24.45;43.58;101374.44;5113713;28;20027;-23
2022/07/11 10:51:14;;;;;;;0.45;0.45;;;;;;;24.54;44.31;101391.91;5095420;28;20029;-23
2022/07/11 10:53:46;;;;;;;0.57;0.57;;;;;;;24.58;43.79;101381.84;5095725;28;20023;-22
2022/07/11 10:56:20;;;;;;;0.73;0.60;;;;;;;24.61;43.40;101395.16;5106398;28;20043;-23
2022/07/11 10:58:54;;;;;;;0.60;0.60;;;;;;;24.65;42.38;101398.53;5109501;28;20023;-24
2022/07/11 11:01:20;;;;;;;2.10;0.70;;;;;;;24.68;42.76;101395.66;5111993;28;20031;-23
2022/07/11 11:03:45;;;;;;;1.05;0.60;;;;;;;24.79;43.11;101387.81;5113006;28;20395;-24
2022/07/11 11:06:12;;;;;;;0.70;0.68;;;;;;;24.85;42.40;101392.00;5094354;28;20059;-23
2022/07/11 11:08:38;;;;;;;0.75;0.75;;;;;;;24.89;42.38;101388.19;5093189;28;20475;-23
2022/07/11 11:11:08;;;;;;;0.90;0.70;;;;;;;24.92;41.96;101382.63;5107464;28;20032;-23
2022/07/11 11:13:35;;;;;;;1.27;0.40;;;;;;;25.00;41.88;101379.44;5110368;28;20031;-24
2022/07/11 11:16:02;;;;;;;2.03;0.77;;;;;;;25.03;41.36;101379.28;5101590;28;20032;-23
2022/07/11 11:18:36;;;;;;;0.82;0.60;;;;;;;25.11;42.23;101373.44;5091858;28;20020;-22
2022/07/11 11:21:09;;;;;;;0.77;0.60;;;;;;;25.21;41.81;101373.75;5112760;28;20402;-23
2022/07/11 11:23:38;;;;;;;1.85;0.60;;;;;;;25.28;41.78;101367.00;5113449;28;20072;-23
2022/07/11 11:26:23;;;;;;;1.23;0.60;;;;;;;25.35;42.00;101368.34;5113972;28;20076;-23
2022/07/11 11:29:00;;;;;;;0.50;0.50;;;;;;;25.42;41.28;101374.25;5103016;28;20478;-23
2022/07/11 11:31:26;;;;;;;1.10;0.65;;;;;;;25.45;40.95;101375.91;5112405;28;20027;-23